createdAt,value
2017-05-17T00:00:06.929Z,14.30
2017-05-17T00:02:34.657Z,14.30
2017-05-17T00:05:01.939Z,14.30
2017-05-17T00:07:28.709Z,14.20
2017-05-17T00:09:55.746Z,14.20
2017-05-17T00:12:23.123Z,14.10
2017-05-17T00:14:50.259Z,14.10
2017-05-17T00:17:17.445Z,14.00
2017-05-17T00:19:44.245Z,14.00
2017-05-17T00:22:11.148Z,13.90
2017-05-17T00:24:38.229Z,14.00
2017-05-17T00:27:04.903Z,13.90
2017-05-17T00:29:31.659Z,14.00
2017-05-17T00:31:58.732Z,14.00
2017-05-17T00:34:25.492Z,14.00
2017-05-17T00:37:04.838Z,14.00
2017-05-17T00:39:49.474Z,14.00
2017-05-17T00:42:34.556Z,13.90
2017-05-17T00:45:19.549Z,13.90
2017-05-17T00:48:05.065Z,13.80
2017-05-17T00:50:50.268Z,13.80
2017-05-17T00:53:24.414Z,13.80
2017-05-17T00:55:51.357Z,13.70
2017-05-17T00:58:18.530Z,13.70
2017-05-17T01:00:45.224Z,13.70
2017-05-17T01:03:11.878Z,13.60
2017-05-17T01:05:39.372Z,13.60
2017-05-17T01:08:06.431Z,13.50
2017-05-17T01:10:33.581Z,13.50
2017-05-17T01:13:01.185Z,13.40
2017-05-17T01:15:28.713Z,13.40
2017-05-17T01:17:55.764Z,13.40
2017-05-17T01:20:22.228Z,13.40
2017-05-17T01:22:49.253Z,13.30
2017-05-17T01:25:16.403Z,13.30
2017-05-17T01:27:43.243Z,13.20
2017-05-17T01:30:10.069Z,13.20
2017-05-17T01:32:36.505Z,13.20
2017-05-17T01:35:03.355Z,13.10
2017-05-17T01:37:30.140Z,13.10
2017-05-17T01:39:57.292Z,13.00
2017-05-17T01:42:24.457Z,13.20
2017-05-17T01:44:51.507Z,13.10
2017-05-17T01:47:19.066Z,13.20
2017-05-17T01:49:46.264Z,13.30
2017-05-17T01:52:13.395Z,13.30
2017-05-17T01:54:40.966Z,13.20
2017-05-17T01:57:08.047Z,13.20
2017-05-17T01:59:35.277Z,13.20
2017-05-17T02:02:02.444Z,13.10
2017-05-17T02:04:30.002Z,13.10
2017-05-17T02:06:56.872Z,13.00
2017-05-17T02:09:24.084Z,13.00
2017-05-17T02:11:51.538Z,13.00
2017-05-17T02:14:18.292Z,13.10
2017-05-17T02:16:45.338Z,13.00
2017-05-17T02:19:12.804Z,13.00
2017-05-17T02:21:39.959Z,13.00
2017-05-17T02:24:07.421Z,13.10
2017-05-17T02:26:34.580Z,13.00
2017-05-17T02:29:01.337Z,13.00
2017-05-17T02:31:28.583Z,12.90
2017-05-17T02:33:55.496Z,12.90
2017-05-17T02:36:23.198Z,12.90
2017-05-17T02:38:49.981Z,12.80
2017-05-17T02:41:17.094Z,12.80
2017-05-17T02:43:44.617Z,12.70
2017-05-17T02:46:12.247Z,12.70
2017-05-17T02:48:41.488Z,12.60
2017-05-17T02:51:09.289Z,12.50
2017-05-17T02:53:37.268Z,12.50
2017-05-17T02:56:04.396Z,12.60
2017-05-17T02:58:31.904Z,12.60
2017-05-17T03:00:59.050Z,12.60
2017-05-17T03:03:25.864Z,12.50
2017-05-17T03:05:53.167Z,12.50
2017-05-17T03:08:20.204Z,12.50
2017-05-17T03:10:46.653Z,12.50
2017-05-17T03:13:13.433Z,12.50
2017-05-17T03:15:41.819Z,12.50
2017-05-17T03:18:08.526Z,12.50
2017-05-17T03:20:35.637Z,12.40
2017-05-17T03:23:02.319Z,12.40
2017-05-17T03:25:29.803Z,12.40
2017-05-17T03:27:56.584Z,12.50
2017-05-17T03:30:24.189Z,12.50
2017-05-17T03:32:51.758Z,12.40
2017-05-17T03:35:18.537Z,12.40
2017-05-17T03:37:45.646Z,12.40
2017-05-17T03:40:13.536Z,12.40
2017-05-17T03:42:40.604Z,12.40
2017-05-17T03:45:07.388Z,12.40
2017-05-17T03:47:34.892Z,12.40
2017-05-17T03:50:01.641Z,12.40
2017-05-17T03:52:28.424Z,12.30
2017-05-17T03:54:55.443Z,12.40
2017-05-17T03:57:23.311Z,12.50
2017-05-17T03:59:49.956Z,12.50
2017-05-17T04:02:16.755Z,12.60
2017-05-17T04:04:44.775Z,12.70
2017-05-17T04:07:11.522Z,12.70
2017-05-17T04:09:38.271Z,12.60
2017-05-17T04:12:05.459Z,12.80
2017-05-17T04:14:32.480Z,13.10
2017-05-17T04:17:00.963Z,13.00
2017-05-17T04:19:28.658Z,13.00
2017-05-17T04:21:56.608Z,13.00
2017-05-17T04:24:23.017Z,13.00
2017-05-17T04:26:50.093Z,13.00
2017-05-17T04:29:18.025Z,13.10
2017-05-17T04:31:45.592Z,13.20
2017-05-17T04:34:12.781Z,13.20
2017-05-17T04:36:39.875Z,13.30
2017-05-17T04:39:06.647Z,13.30
2017-05-17T04:41:33.584Z,13.20
2017-05-17T04:44:00.658Z,13.30
2017-05-17T04:46:27.827Z,13.30
2017-05-17T04:48:55.420Z,13.40
2017-05-17T04:51:22.565Z,13.60
2017-05-17T04:53:49.276Z,13.60
2017-05-17T04:56:16.360Z,13.90
2017-05-17T04:58:43.172Z,14.10
2017-05-17T05:01:09.985Z,14.20
2017-05-17T05:03:36.804Z,14.20
2017-05-17T05:06:04.173Z,14.20
2017-05-17T05:08:30.813Z,14.30
2017-05-17T05:10:57.557Z,14.30
2017-05-17T05:13:26.041Z,14.50
2017-05-17T05:15:52.952Z,14.60
2017-05-17T05:18:20.147Z,14.60
2017-05-17T05:20:47.313Z,14.70
2017-05-17T05:25:46.325Z,14.70
2017-05-17T05:28:13.205Z,14.70
2017-05-17T05:30:40.324Z,14.70
2017-05-17T05:33:07.732Z,14.80
2017-05-17T05:35:34.535Z,14.90
2017-05-17T05:38:02.608Z,15.00
2017-05-17T05:40:30.065Z,15.00
2017-05-17T05:42:57.145Z,15.20
2017-05-17T05:45:24.449Z,15.20
2017-05-17T05:47:51.749Z,15.30
2017-05-17T05:50:18.933Z,15.50
2017-05-17T05:52:45.570Z,15.50
2017-05-17T05:55:14.401Z,15.50
2017-05-17T05:57:42.307Z,15.50
2017-05-17T06:00:09.546Z,15.70
2017-05-17T06:02:36.387Z,15.70
2017-05-17T06:05:03.575Z,15.70
2017-05-17T06:07:32.087Z,15.80
2017-05-17T06:09:59.556Z,15.80
2017-05-17T06:12:28.014Z,15.70
2017-05-17T06:17:26.820Z,16.00
2017-05-17T06:24:58.386Z,16.10
2017-05-17T06:27:26.238Z,16.20
2017-05-17T06:29:53.444Z,16.20
2017-05-17T06:32:22.536Z,16.30
2017-05-17T06:34:49.751Z,16.30
2017-05-17T06:37:17.458Z,16.40
2017-05-17T06:39:44.830Z,16.40
2017-05-17T06:42:13.231Z,16.50
2017-05-17T06:44:40.772Z,16.60
2017-05-17T06:52:13.644Z,16.70
2017-05-17T06:54:41.772Z,16.80
2017-05-17T06:59:44.975Z,17.10
2017-05-17T07:02:15.493Z,17.20
2017-05-17T07:04:42.433Z,17.20
2017-05-17T07:07:10.589Z,17.30
2017-05-17T07:09:37.746Z,17.50
2017-05-17T07:14:38.084Z,17.70
2017-05-17T07:17:06.374Z,17.70
2017-05-17T07:19:35.806Z,17.80
2017-05-17T07:22:07.646Z,17.90
2017-05-17T07:24:36.464Z,18.00
2017-05-17T07:27:04.132Z,18.10
2017-05-17T07:32:04.721Z,18.30
2017-05-17T07:34:32.568Z,18.40
2017-05-17T07:37:00.600Z,18.40
2017-05-17T07:39:29.408Z,18.70
2017-05-17T07:41:56.570Z,18.70
2017-05-17T07:44:25.296Z,18.80
2017-05-17T07:46:54.324Z,19.00
2017-05-17T07:49:21.864Z,19.00
2017-05-17T07:51:50.655Z,19.20
2017-05-17T07:54:18.438Z,19.30
2017-05-17T07:56:45.405Z,19.30
2017-05-17T07:59:12.165Z,19.40
2017-05-17T08:01:39.333Z,19.60
2017-05-17T08:06:43.841Z,19.60
2017-05-17T08:09:13.765Z,19.70
2017-05-17T08:11:42.793Z,19.80
2017-05-17T08:16:41.127Z,19.90
2017-05-17T08:19:08.910Z,20.10
2017-05-17T08:24:07.974Z,20.30
2017-05-17T08:26:34.476Z,20.40
2017-05-17T08:29:01.016Z,20.50
2017-05-17T08:31:31.444Z,20.50
2017-05-17T08:34:02.218Z,20.70
2017-05-17T08:36:29.839Z,20.70
2017-05-17T08:38:56.605Z,20.90
2017-05-17T08:43:57.604Z,21.00
2017-05-17T08:46:26.448Z,21.00
2017-05-17T08:56:36.323Z,21.60
2017-05-17T09:01:36.929Z,21.70
2017-05-17T09:04:04.056Z,21.70
2017-05-17T09:09:06.415Z,22.00
2017-05-17T09:14:08.345Z,22.10
2017-05-17T09:16:36.404Z,22.10
2017-05-17T09:19:04.999Z,22.30
2017-05-17T09:24:05.770Z,22.40
2017-05-17T09:31:37.868Z,22.50
2017-05-17T09:36:47.103Z,22.60
2017-05-17T09:41:50.125Z,22.70
2017-05-17T09:44:17.238Z,22.90
2017-05-17T09:49:22.345Z,23.10
2017-05-17T09:56:56.041Z,23.30
2017-05-17T09:59:24.006Z,23.40
2017-05-17T10:01:52.773Z,23.60
2017-05-17T10:09:22.811Z,24.10
2017-05-17T10:14:25.856Z,24.40
2017-05-17T10:16:56.970Z,24.40
2017-05-17T10:19:24.808Z,24.50
2017-05-17T10:21:57.106Z,24.70
2017-05-17T10:24:26.298Z,24.80
2017-05-17T10:32:05.599Z,24.90
2017-05-17T10:34:34.177Z,25.10
2017-05-17T10:42:14.617Z,25.50
2017-05-17T10:49:52.164Z,25.70
2017-05-17T10:52:20.084Z,25.90
2017-05-17T10:54:49.250Z,25.90
2017-05-17T10:57:17.288Z,26.10
2017-05-17T10:59:45.593Z,26.20
2017-05-17T11:02:17.825Z,26.40
2017-05-17T11:12:26.825Z,26.80
2017-05-17T11:14:55.277Z,27.20
2017-05-17T11:19:59.204Z,27.50
2017-05-17T11:25:03.591Z,27.70
2017-05-17T11:27:32.936Z,27.90
2017-05-17T11:40:15.573Z,29.40
2017-05-17T11:42:44.794Z,29.90
2017-05-17T11:45:14.671Z,30.50
2017-05-17T11:47:42.838Z,31.50
2017-05-17T11:50:11.233Z,32.80
2017-05-17T11:55:16.070Z,34.90
2017-05-17T11:57:46.196Z,34.90
2017-05-17T12:02:52.503Z,37.60
2017-05-17T12:08:00.416Z,38.20
2017-05-17T12:13:36.324Z,38.80
2017-05-17T12:16:08.217Z,39.00
2017-05-17T12:19:02.689Z,39.00
2017-05-17T12:24:20.399Z,38.70
2017-05-17T12:26:53.156Z,39.60
2017-05-17T12:29:22.385Z,39.60
2017-05-17T12:43:13.613Z,39.20
2017-05-17T13:05:44.438Z,42.20
2017-05-17T13:17:26.525Z,43.80
2017-05-17T13:23:02.297Z,44.20
2017-05-17T13:25:42.527Z,43.60
2017-05-17T13:42:40.245Z,43.60
2017-05-17T14:20:23.753Z,41.10
2017-05-17T14:23:03.148Z,41.10
2017-05-17T14:28:30.567Z,40.70
2017-05-17T14:42:32.647Z,41.20
2017-05-17T14:47:39.619Z,41.40
2017-05-17T14:55:51.617Z,40.10
2017-05-17T14:58:37.715Z,40.10
2017-05-17T15:10:20.743Z,39.40
2017-05-17T15:21:39.917Z,39.10
2017-05-17T15:35:07.994Z,36.50
2017-05-17T15:50:15.913Z,35.50
2017-05-17T15:52:55.653Z,35.10
2017-05-17T16:04:00.792Z,36.10
2017-05-17T16:14:58.834Z,35.00
2017-05-17T16:26:16.124Z,34.70
2017-05-17T16:28:45.436Z,34.80
2017-05-17T16:40:07.411Z,33.90
2017-05-17T16:48:12.000Z,32.20
2017-05-17T16:50:43.446Z,31.80
2017-05-17T16:53:16.745Z,31.30
2017-05-17T16:55:52.178Z,31.00
2017-05-17T16:58:26.260Z,30.80
2017-05-17T17:06:01.818Z,29.50
2017-05-17T17:08:30.036Z,29.10
2017-05-17T17:11:00.456Z,28.30
2017-05-17T17:13:28.255Z,28.30
2017-05-17T17:15:55.750Z,27.60
2017-05-17T17:18:23.474Z,27.30
2017-05-17T17:20:50.334Z,27.10
2017-05-17T17:23:17.179Z,26.90
2017-05-17T17:25:44.126Z,26.90
2017-05-17T17:28:15.174Z,26.80
2017-05-17T17:30:42.046Z,26.80
2017-05-17T17:33:08.521Z,26.70
2017-05-17T17:35:36.675Z,26.30
2017-05-17T17:38:03.129Z,26.30
2017-05-17T17:40:30.885Z,26.20
2017-05-17T17:43:01.458Z,26.10
2017-05-17T17:45:29.093Z,25.90
2017-05-17T17:50:27.683Z,25.70
2017-05-17T17:52:55.077Z,25.50
2017-05-17T17:55:22.570Z,25.60
2017-05-17T17:57:49.313Z,25.60
2017-05-17T18:00:16.861Z,25.50
2017-05-17T18:02:45.013Z,25.50
2017-05-17T18:05:11.840Z,25.40
2017-05-17T18:10:12.227Z,25.30
2017-05-17T18:12:39.815Z,25.20
2017-05-17T18:15:07.126Z,25.10
2017-05-17T18:17:34.035Z,24.90
2017-05-17T18:20:00.826Z,24.90
2017-05-17T18:22:29.820Z,24.70
2017-05-17T18:24:57.384Z,24.50
2017-05-17T18:27:25.459Z,24.40
2017-05-17T18:29:52.846Z,24.50
2017-05-17T18:32:20.376Z,24.30
2017-05-17T18:34:48.019Z,24.10
2017-05-17T18:37:16.742Z,24.10
2017-05-17T18:39:43.827Z,24.10
2017-05-17T18:42:11.039Z,24.00
2017-05-17T18:44:38.792Z,24.00
2017-05-17T18:49:40.825Z,23.90
2017-05-17T18:52:07.960Z,23.80
2017-05-17T18:54:38.323Z,23.80
2017-05-17T18:57:08.468Z,23.80
2017-05-17T18:59:38.198Z,23.60
2017-05-17T19:04:37.038Z,23.30
2017-05-17T19:07:04.565Z,23.20
2017-05-17T19:09:31.496Z,23.10
2017-05-17T19:11:58.716Z,23.10
2017-05-17T19:14:26.176Z,23.10
2017-05-17T19:16:53.277Z,23.00
2017-05-17T19:19:20.098Z,22.90
2017-05-17T19:21:48.702Z,22.70
2017-05-17T19:24:16.142Z,22.80
2017-05-17T19:26:45.011Z,22.60
2017-05-17T19:29:13.504Z,22.40
2017-05-17T19:31:41.892Z,22.40
2017-05-17T19:34:10.273Z,22.30
2017-05-17T19:36:37.348Z,22.20
2017-05-17T19:39:04.792Z,22.10
2017-05-17T19:41:32.922Z,22.00
2017-05-17T19:44:01.502Z,21.90
2017-05-17T19:46:29.398Z,21.80
2017-05-17T19:48:59.388Z,21.80
2017-05-17T19:51:26.909Z,21.70
2017-05-17T19:53:53.769Z,21.60
2017-05-17T19:56:21.417Z,21.50
2017-05-17T19:58:48.504Z,21.40
2017-05-17T20:01:15.032Z,21.40
2017-05-17T20:03:42.877Z,21.30
2017-05-17T20:06:09.753Z,21.20
2017-05-17T20:08:36.236Z,21.20
2017-05-17T20:11:04.997Z,21.10
2017-05-17T20:18:36.771Z,20.90
2017-05-17T20:21:03.698Z,20.80
2017-05-17T20:23:30.630Z,20.80
2017-05-17T20:25:57.562Z,20.70
2017-05-17T20:28:25.320Z,20.70
2017-05-17T20:30:52.758Z,20.60
2017-05-17T20:33:20.716Z,20.60
2017-05-17T20:35:47.870Z,20.60
2017-05-17T20:38:14.555Z,20.60
2017-05-17T20:40:42.390Z,20.50
2017-05-17T20:43:10.472Z,20.40
2017-05-17T20:45:39.008Z,20.30
2017-05-17T20:48:12.667Z,20.30
2017-05-17T20:50:45.105Z,20.10
2017-05-17T20:55:47.433Z,20.00
2017-05-17T20:58:15.369Z,20.00
2017-05-17T21:00:43.461Z,19.90
2017-05-17T21:03:10.868Z,19.90
2017-05-17T21:05:38.817Z,19.80
2017-05-17T21:08:05.378Z,19.80
2017-05-17T21:10:33.208Z,19.70
2017-05-17T21:13:01.500Z,19.60
2017-05-17T21:15:32.374Z,19.50
2017-05-17T21:20:32.670Z,19.50
2017-05-17T21:23:00.550Z,19.30
2017-05-17T21:25:30.451Z,19.20
2017-05-17T21:27:57.329Z,19.20
2017-05-17T21:30:24.431Z,19.00
2017-05-17T21:32:51.239Z,19.10
2017-05-17T21:35:20.085Z,18.90
2017-05-17T21:37:47.819Z,19.00
2017-05-17T21:40:18.986Z,18.90
2017-05-17T21:42:46.978Z,18.90
2017-05-17T21:47:47.800Z,18.70
2017-05-17T21:50:15.027Z,18.70
2017-05-17T21:52:45.149Z,18.60
2017-05-17T21:55:12.961Z,18.60
2017-05-17T21:57:40.574Z,18.50
2017-05-17T22:00:07.696Z,18.50
2017-05-17T22:02:34.954Z,18.50
2017-05-17T22:05:04.082Z,18.50
2017-05-17T22:07:32.541Z,18.40
2017-05-17T22:10:00.661Z,18.40
2017-05-17T22:12:30.272Z,18.30
2017-05-17T22:14:57.109Z,18.30
2017-05-17T22:17:24.185Z,18.20
2017-05-17T22:19:50.670Z,18.20
2017-05-17T22:22:18.892Z,18.20
2017-05-17T22:24:46.236Z,18.20
2017-05-17T22:27:13.404Z,18.20
2017-05-17T22:29:40.964Z,18.10
2017-05-17T22:32:07.968Z,18.10
2017-05-17T22:34:35.185Z,18.10
2017-05-17T22:37:03.650Z,17.90
2017-05-17T22:39:30.466Z,17.90
2017-05-17T22:41:58.216Z,17.90
2017-05-17T22:44:25.326Z,17.90
2017-05-17T22:46:52.607Z,17.90
2017-05-17T22:49:19.332Z,17.80
2017-05-17T22:54:18.464Z,17.60
2017-05-17T22:56:46.528Z,17.30
2017-05-17T22:59:14.807Z,17.20
2017-05-17T23:01:42.234Z,17.20
2017-05-17T23:04:10.180Z,17.00
2017-05-17T23:06:38.330Z,17.00
2017-05-17T23:09:05.162Z,16.90
2017-05-17T23:11:35.832Z,16.90
2017-05-17T23:14:02.769Z,16.90
2017-05-17T23:16:29.672Z,17.00
2017-05-17T23:21:29.401Z,16.90
2017-05-17T23:23:56.132Z,16.90
2017-05-17T23:26:22.996Z,16.90
2017-05-17T23:28:51.313Z,16.90
2017-05-17T23:31:18.488Z,16.80
2017-05-17T23:33:45.624Z,16.80
2017-05-17T23:36:13.137Z,16.80
2017-05-17T23:38:40.292Z,16.80
2017-05-17T23:41:06.801Z,16.70
2017-05-17T23:43:33.810Z,16.70
2017-05-17T23:46:00.519Z,16.70
2017-05-17T23:48:28.152Z,16.70
2017-05-17T23:51:00.461Z,16.70
2017-05-17T23:53:29.933Z,16.60
2017-05-17T23:55:56.468Z,16.60
2017-05-17T23:58:24.821Z,16.60
